sensor_id;sensor_type;location;lat;lon;timestamp;P1;durP1;ratioP1;P2;durP2;ratioP2
22904;SDS011;11619;50.140;8.518;2023-05-21T00:02:23;17.00;;;13.35;;
22904;SDS011;11619;50.140;8.518;2023-05-21T00:04:50;14.52;;;13.05;;
22904;SDS011;11619;50.140;8.518;2023-05-21T00:07:16;13.90;;;12.50;;
22904;SDS011;11619;50.140;8.518;2023-05-21T00:09:43;15.32;;;13.15;;
22904;SDS011;11619;50.140;8.518;2023-05-21T00:12:10;14.23;;;12.82;;
22904;SDS011;11619;50.140;8.518;2023-05-21T00:14:36;13.80;;;12.40;;
22904;SDS011;11619;50.140;8.518;2023-05-21T00:17:03;15.43;;;13.15;;
22904;SDS011;11619;50.140;8.518;2023-05-21T00:19:29;15.95;;;12.52;;
22904;SDS011;11619;50.140;8.518;2023-05-21T00:21:58;15.35;;;13.60;;
22904;SDS011;11619;50.140;8.518;2023-05-21T00:24:27;13.85;;;12.27;;
22904;SDS011;11619;50.140;8.518;2023-05-21T00:26:54;14.57;;;13.07;;
22904;SDS011;11619;50.140;8.518;2023-05-21T00:29:21;15.52;;;13.27;;
22904;SDS011;11619;50.140;8.518;2023-05-21T00:31:48;16.60;;;12.75;;
22904;SDS011;11619;50.140;8.518;2023-05-21T00:34:16;14.00;;;12.48;;
22904;SDS011;11619;50.140;8.518;2023-05-21T00:36:43;14.23;;;12.73;;
22904;SDS011;11619;50.140;8.518;2023-05-21T00:39:13;15.05;;;12.82;;
22904;SDS011;11619;50.140;8.518;2023-05-21T00:41:39;14.48;;;12.98;;
22904;SDS011;11619;50.140;8.518;2023-05-21T00:44:08;13.48;;;11.88;;
22904;SDS011;11619;50.140;8.518;2023-05-21T00:46:34;15.38;;;13.57;;
22904;SDS011;11619;50.140;8.518;2023-05-21T00:49:01;16.40;;;12.95;;
22904;SDS011;11619;50.140;8.518;2023-05-21T00:51:28;14.07;;;12.68;;
22904;SDS011;11619;50.140;8.518;2023-05-21T00:53:55;14.85;;;12.43;;
22904;SDS011;11619;50.140;8.518;2023-05-21T00:56:23;14.85;;;12.77;;
22904;SDS011;11619;50.140;8.518;2023-05-21T00:58:50;14.77;;;13.18;;
22904;SDS011;11619;50.140;8.518;2023-05-21T01:01:19;13.38;;;12.07;;
22904;SDS011;11619;50.140;8.518;2023-05-21T01:03:46;13.90;;;12.32;;
22904;SDS011;11619;50.140;8.518;2023-05-21T01:06:14;14.07;;;12.68;;
22904;SDS011;11619;50.140;8.518;2023-05-21T01:08:41;19.75;;;12.73;;
22904;SDS011;11619;50.140;8.518;2023-05-21T01:11:08;12.77;;;11.48;;
22904;SDS011;11619;50.140;8.518;2023-05-21T01:13:36;16.27;;;13.43;;
22904;SDS011;11619;50.140;8.518;2023-05-21T01:16:07;14.02;;;12.32;;
22904;SDS011;11619;50.140;8.518;2023-05-21T01:18:34;13.77;;;12.25;;
22904;SDS011;11619;50.140;8.518;2023-05-21T01:21:03;14.98;;;12.80;;
22904;SDS011;11619;50.140;8.518;2023-05-21T01:23:30;13.38;;;11.98;;
22904;SDS011;11619;50.140;8.518;2023-05-21T01:25:57;14.60;;;13.10;;
22904;SDS011;11619;50.140;8.518;2023-05-21T01:28:23;15.40;;;13.75;;
22904;SDS011;11619;50.140;8.518;2023-05-21T01:30:50;14.98;;;13.05;;
22904;SDS011;11619;50.140;8.518;2023-05-21T01:33:18;14.57;;;13.07;;
22904;SDS011;11619;50.140;8.518;2023-05-21T01:38:42;14.50;;;13.00;;
22904;SDS011;11619;50.140;8.518;2023-05-21T01:41:15;13.25;;;11.90;;
22904;SDS011;11619;50.140;8.518;2023-05-21T01:43:44;17.70;;;13.43;;
22904;SDS011;11619;50.140;8.518;2023-05-21T01:46:12;16.27;;;13.05;;
22904;SDS011;11619;50.140;8.518;2023-05-21T01:48:41;15.43;;;12.82;;
22904;SDS011;11619;50.140;8.518;2023-05-21T01:51:09;14.38;;;12.27;;
22904;SDS011;11619;50.140;8.518;2023-05-21T01:53:35;13.15;;;11.82;;
22904;SDS011;11619;50.140;8.518;2023-05-21T01:56:06;14.73;;;11.93;;
22904;SDS011;11619;50.140;8.518;2023-05-21T01:58:32;12.82;;;11.50;;
22904;SDS011;11619;50.140;8.518;2023-05-21T02:00:59;14.55;;;12.75;;
22904;SDS011;11619;50.140;8.518;2023-05-21T02:03:26;14.10;;;12.38;;
22904;SDS011;11619;50.140;8.518;2023-05-21T02:05:53;14.40;;;12.90;;
22904;SDS011;11619;50.140;8.518;2023-05-21T02:08:20;15.95;;;12.77;;
22904;SDS011;11619;50.140;8.518;2023-05-21T02:10:48;13.68;;;12.38;;
22904;SDS011;11619;50.140;8.518;2023-05-21T02:13:15;14.45;;;12.55;;
22904;SDS011;11619;50.140;8.518;2023-05-21T02:15:45;16.25;;;12.57;;
22904;SDS011;11619;50.140;8.518;2023-05-21T02:18:12;13.50;;;12.05;;
22904;SDS011;11619;50.140;8.518;2023-05-21T02:20:42;14.35;;;12.68;;
22904;SDS011;11619;50.140;8.518;2023-05-21T02:23:08;13.88;;;12.45;;
22904;SDS011;11619;50.140;8.518;2023-05-21T02:25:35;14.65;;;12.18;;
22904;SDS011;11619;50.140;8.518;2023-05-21T02:28:02;14.20;;;12.15;;
22904;SDS011;11619;50.140;8.518;2023-05-21T02:30:29;14.38;;;12.98;;
22904;SDS011;11619;50.140;8.518;2023-05-21T02:32:55;14.10;;;12.05;;
22904;SDS011;11619;50.140;8.518;2023-05-21T02:35:24;15.73;;;11.77;;
22904;SDS011;11619;50.140;8.518;2023-05-21T02:37:51;15.75;;;12.80;;
22904;SDS011;11619;50.140;8.518;2023-05-21T02:40:17;14.98;;;12.80;;
22904;SDS011;11619;50.140;8.518;2023-05-21T02:42:44;14.02;;;12.63;;
22904;SDS011;11619;50.140;8.518;2023-05-21T02:45:10;13.43;;;12.15;;
22904;SDS011;11619;50.140;8.518;2023-05-21T02:47:37;12.80;;;11.55;;
22904;SDS011;11619;50.140;8.518;2023-05-21T02:50:04;13.23;;;11.85;;
22904;SDS011;11619;50.140;8.518;2023-05-21T02:52:32;13.25;;;11.88;;
22904;SDS011;11619;50.140;8.518;2023-05-21T02:54:59;13.85;;;11.90;;
22904;SDS011;11619;50.140;8.518;2023-05-21T02:57:25;13.70;;;12.30;;
22904;SDS011;11619;50.140;8.518;2023-05-21T02:59:52;13.18;;;11.88;;
22904;SDS011;11619;50.140;8.518;2023-05-21T03:02:18;15.40;;;12.98;;
22904;SDS011;11619;50.140;8.518;2023-05-21T03:04:45;14.95;;;11.95;;
22904;SDS011;11619;50.140;8.518;2023-05-21T03:07:12;14.38;;;12.75;;
22904;SDS011;11619;50.140;8.518;2023-05-21T03:09:42;13.52;;;11.80;;
22904;SDS011;11619;50.140;8.518;2023-05-21T03:12:09;13.60;;;11.82;;
22904;SDS011;11619;50.140;8.518;2023-05-21T03:14:36;12.95;;;11.75;;
22904;SDS011;11619;50.140;8.518;2023-05-21T03:17:03;12.73;;;11.50;;
22904;SDS011;11619;50.140;8.518;2023-05-21T03:19:31;14.68;;;12.68;;
22904;SDS011;11619;50.140;8.518;2023-05-21T03:22:02;14.60;;;12.13;;
22904;SDS011;11619;50.140;8.518;2023-05-21T03:24:29;14.27;;;11.82;;
22904;SDS011;11619;50.140;8.518;2023-05-21T03:26:55;12.77;;;11.45;;
22904;SDS011;11619;50.140;8.518;2023-05-21T03:29:22;15.43;;;12.10;;
22904;SDS011;11619;50.140;8.518;2023-05-21T03:31:50;15.02;;;12.27;;
22904;SDS011;11619;50.140;8.518;2023-05-21T03:34:18;14.18;;;12.10;;
22904;SDS011;11619;50.140;8.518;2023-05-21T03:36:45;13.00;;;11.75;;
22904;SDS011;11619;50.140;8.518;2023-05-21T03:39:12;13.00;;;11.77;;
22904;SDS011;11619;50.140;8.518;2023-05-21T03:41:38;13.07;;;11.80;;
22904;SDS011;11619;50.140;8.518;2023-05-21T03:44:05;14.40;;;11.70;;
22904;SDS011;11619;50.140;8.518;2023-05-21T03:46:31;12.40;;;11.20;;
22904;SDS011;11619;50.140;8.518;2023-05-21T03:48:58;12.57;;;11.38;;
22904;SDS011;11619;50.140;8.518;2023-05-21T03:51:25;12.93;;;11.63;;
22904;SDS011;11619;50.140;8.518;2023-05-21T03:53:52;12.23;;;11.02;;
22904;SDS011;11619;50.140;8.518;2023-05-21T03:56:19;12.57;;;11.38;;
22904;SDS011;11619;50.140;8.518;2023-05-21T03:58:46;12.57;;;11.38;;
22904;SDS011;11619;50.140;8.518;2023-05-21T04:01:13;13.30;;;11.70;;
22904;SDS011;11619;50.140;8.518;2023-05-21T04:03:39;12.63;;;11.30;;
22904;SDS011;11619;50.140;8.518;2023-05-21T04:06:07;13.15;;;11.80;;
22904;SDS011;11619;50.140;8.518;2023-05-21T04:08:35;14.18;;;11.82;;
22904;SDS011;11619;50.140;8.518;2023-05-21T04:11:03;13.93;;;11.40;;
22904;SDS011;11619;50.140;8.518;2023-05-21T04:13:29;13.27;;;11.55;;
22904;SDS011;11619;50.140;8.518;2023-05-21T04:15:56;13.55;;;12.15;;
22904;SDS011;11619;50.140;8.518;2023-05-21T04:18:22;14.25;;;12.27;;
22904;SDS011;11619;50.140;8.518;2023-05-21T04:20:51;12.48;;;11.18;;
22904;SDS011;11619;50.140;8.518;2023-05-21T04:23:17;12.02;;;10.85;;
22904;SDS011;11619;50.140;8.518;2023-05-21T04:25:44;14.30;;;12.80;;
22904;SDS011;11619;50.140;8.518;2023-05-21T04:28:10;15.35;;;11.55;;
22904;SDS011;11619;50.140;8.518;2023-05-21T04:30:37;12.20;;;11.10;;
22904;SDS011;11619;50.140;8.518;2023-05-21T04:33:03;13.13;;;11.45;;
22904;SDS011;11619;50.140;8.518;2023-05-21T04:35:30;13.93;;;11.68;;
22904;SDS011;11619;50.140;8.518;2023-05-21T04:37:57;13.02;;;11.73;;
22904;SDS011;11619;50.140;8.518;2023-05-21T04:40:23;12.90;;;11.57;;
22904;SDS011;11619;50.140;8.518;2023-05-21T04:42:49;12.90;;;11.60;;
22904;SDS011;11619;50.140;8.518;2023-05-21T04:45:16;16.20;;;11.43;;
22904;SDS011;11619;50.140;8.518;2023-05-21T04:47:43;14.57;;;12.18;;
22904;SDS011;11619;50.140;8.518;2023-05-21T04:50:09;15.63;;;11.45;;
22904;SDS011;11619;50.140;8.518;2023-05-21T04:52:37;13.27;;;11.95;;
22904;SDS011;11619;50.140;8.518;2023-05-21T04:55:08;12.85;;;11.55;;
22904;SDS011;11619;50.140;8.518;2023-05-21T04:57:35;13.05;;;11.75;;
22904;SDS011;11619;50.140;8.518;2023-05-21T05:00:02;15.15;;;11.27;;
22904;SDS011;11619;50.140;8.518;2023-05-21T05:02:31;12.27;;;11.05;;
22904;SDS011;11619;50.140;8.518;2023-05-21T05:04:57;12.40;;;10.93;;
22904;SDS011;11619;50.140;8.518;2023-05-21T05:07:24;12.70;;;11.45;;
22904;SDS011;11619;50.140;8.518;2023-05-21T05:09:51;12.00;;;10.80;;
22904;SDS011;11619;50.140;8.518;2023-05-21T05:12:18;12.90;;;10.73;;
22904;SDS011;11619;50.140;8.518;2023-05-21T05:14:44;12.88;;;11.57;;
22904;SDS011;11619;50.140;8.518;2023-05-21T05:17:11;13.63;;;11.85;;
22904;SDS011;11619;50.140;8.518;2023-05-21T05:19:40;11.88;;;10.75;;
22904;SDS011;11619;50.140;8.518;2023-05-21T05:22:06;11.88;;;10.77;;
22904;SDS011;11619;50.140;8.518;2023-05-21T05:24:33;12.65;;;11.50;;
22904;SDS011;11619;50.140;8.518;2023-05-21T05:26:59;12.85;;;10.40;;
22904;SDS011;11619;50.140;8.518;2023-05-21T05:29:26;12.90;;;11.50;;
22904;SDS011;11619;50.140;8.518;2023-05-21T05:31:52;14.90;;;11.93;;
22904;SDS011;11619;50.140;8.518;2023-05-21T05:34:19;12.25;;;10.98;;
22904;SDS011;11619;50.140;8.518;2023-05-21T05:36:46;13.10;;;11.38;;
22904;SDS011;11619;50.140;8.518;2023-05-21T05:39:13;12.70;;;11.00;;
22904;SDS011;11619;50.140;8.518;2023-05-21T05:41:39;13.85;;;11.85;;
22904;SDS011;11619;50.140;8.518;2023-05-21T05:44:06;15.55;;;11.68;;
22904;SDS011;11619;50.140;8.518;2023-05-21T05:46:35;13.35;;;11.82;;
22904;SDS011;11619;50.140;8.518;2023-05-21T05:49:02;14.15;;;12.43;;
22904;SDS011;11619;50.140;8.518;2023-05-21T05:51:29;13.18;;;11.60;;
22904;SDS011;11619;50.140;8.518;2023-05-21T05:53:55;11.55;;;10.52;;
22904;SDS011;11619;50.140;8.518;2023-05-21T05:56:22;12.98;;;10.85;;
22904;SDS011;11619;50.140;8.518;2023-05-21T05:58:48;12.95;;;10.70;;
22904;SDS011;11619;50.140;8.518;2023-05-21T06:01:15;12.57;;;11.25;;
22904;SDS011;11619;50.140;8.518;2023-05-21T06:03:42;16.52;;;11.00;;
22904;SDS011;11619;50.140;8.518;2023-05-21T06:06:09;13.00;;;10.63;;
22904;SDS011;11619;50.140;8.518;2023-05-21T06:08:36;12.13;;;11.00;;
22904;SDS011;11619;50.140;8.518;2023-05-21T06:11:03;13.27;;;11.57;;
22904;SDS011;11619;50.140;8.518;2023-05-21T06:13:30;13.95;;;12.05;;
22904;SDS011;11619;50.140;8.518;2023-05-21T06:15:57;12.27;;;11.18;;
22904;SDS011;11619;50.140;8.518;2023-05-21T06:18:23;11.98;;;10.65;;
22904;SDS011;11619;50.140;8.518;2023-05-21T06:20:50;11.95;;;10.65;;
22904;SDS011;11619;50.140;8.518;2023-05-21T06:23:16;12.75;;;11.43;;
22904;SDS011;11619;50.140;8.518;2023-05-21T06:25:43;11.82;;;10.65;;
22904;SDS011;11619;50.140;8.518;2023-05-21T06:28:09;12.02;;;10.93;;
22904;SDS011;11619;50.140;8.518;2023-05-21T06:30:35;11.90;;;10.75;;
22904;SDS011;11619;50.140;8.518;2023-05-21T06:33:02;12.13;;;10.93;;
22904;SDS011;11619;50.140;8.518;2023-05-21T06:35:29;12.30;;;11.20;;
22904;SDS011;11619;50.140;8.518;2023-05-21T06:37:55;11.77;;;10.68;;
22904;SDS011;11619;50.140;8.518;2023-05-21T06:40:21;11.70;;;10.60;;
22904;SDS011;11619;50.140;8.518;2023-05-21T06:42:48;12.20;;;11.00;;
22904;SDS011;11619;50.140;8.518;2023-05-21T06:45:14;12.35;;;11.13;;
22904;SDS011;11619;50.140;8.518;2023-05-21T06:47:41;11.95;;;10.85;;
22904;SDS011;11619;50.140;8.518;2023-05-21T06:50:07;12.55;;;10.55;;
22904;SDS011;11619;50.140;8.518;2023-05-21T06:52:34;12.02;;;10.93;;
22904;SDS011;11619;50.140;8.518;2023-05-21T06:55:01;12.68;;;11.10;;
22904;SDS011;11619;50.140;8.518;2023-05-21T06:57:27;12.93;;;10.43;;
22904;SDS011;11619;50.140;8.518;2023-05-21T06:59:53;12.55;;;10.68;;
22904;SDS011;11619;50.140;8.518;2023-05-21T07:02:20;11.85;;;10.80;;
22904;SDS011;11619;50.140;8.518;2023-05-21T07:04:46;11.55;;;10.35;;
22904;SDS011;11619;50.140;8.518;2023-05-21T07:07:13;14.05;;;11.70;;
22904;SDS011;11619;50.140;8.518;2023-05-21T07:09:39;11.90;;;10.75;;
22904;SDS011;11619;50.140;8.518;2023-05-21T07:12:06;11.75;;;10.65;;
22904;SDS011;11619;50.140;8.518;2023-05-21T07:14:32;12.60;;;11.40;;
22904;SDS011;11619;50.140;8.518;2023-05-21T07:16:59;12.13;;;10.80;;
22904;SDS011;11619;50.140;8.518;2023-05-21T07:19:26;13.52;;;11.13;;
22904;SDS011;11619;50.140;8.518;2023-05-21T07:21:52;11.35;;;10.43;;
22904;SDS011;11619;50.140;8.518;2023-05-21T07:24:19;12.18;;;11.00;;
22904;SDS011;11619;50.140;8.518;2023-05-21T07:26:46;11.88;;;10.77;;
22904;SDS011;11619;50.140;8.518;2023-05-21T07:29:12;12.55;;;11.27;;
22904;SDS011;11619;50.140;8.518;2023-05-21T07:31:39;12.18;;;10.95;;
22904;SDS011;11619;50.140;8.518;2023-05-21T07:34:05;11.90;;;10.88;;
22904;SDS011;11619;50.140;8.518;2023-05-21T07:36:32;12.40;;;11.00;;
22904;SDS011;11619;50.140;8.518;2023-05-21T07:38:58;11.88;;;10.77;;
22904;SDS011;11619;50.140;8.518;2023-05-21T07:41:26;11.98;;;10.88;;
22904;SDS011;11619;50.140;8.518;2023-05-21T07:43:52;13.52;;;11.23;;
22904;SDS011;11619;50.140;8.518;2023-05-21T07:46:18;12.05;;;10.85;;
22904;SDS011;11619;50.140;8.518;2023-05-21T07:48:45;13.02;;;11.65;;
22904;SDS011;11619;50.140;8.518;2023-05-21T07:51:13;13.80;;;11.18;;
22904;SDS011;11619;50.140;8.518;2023-05-21T07:53:39;11.02;;;10.05;;
22904;SDS011;11619;50.140;8.518;2023-05-21T07:56:06;12.23;;;10.75;;
22904;SDS011;11619;50.140;8.518;2023-05-21T07:58:33;11.88;;;10.45;;
22904;SDS011;11619;50.140;8.518;2023-05-21T08:01:00;12.00;;;10.90;;
22904;SDS011;11619;50.140;8.518;2023-05-21T08:03:27;12.25;;;11.05;;
22904;SDS011;11619;50.140;8.518;2023-05-21T08:05:56;11.88;;;10.77;;
22904;SDS011;11619;50.140;8.518;2023-05-21T08:08:22;12.13;;;10.93;;
22904;SDS011;11619;50.140;8.518;2023-05-21T08:10:49;11.85;;;10.75;;
22904;SDS011;11619;50.140;8.518;2023-05-21T08:13:15;11.95;;;10.75;;
22904;SDS011;11619;50.140;8.518;2023-05-21T08:15:42;17.65;;;11.48;;
22904;SDS011;11619;50.140;8.518;2023-05-21T08:18:09;12.20;;;11.00;;
22904;SDS011;11619;50.140;8.518;2023-05-21T08:20:37;11.82;;;10.77;;
22904;SDS011;11619;50.140;8.518;2023-05-21T08:23:03;11.50;;;10.40;;
22904;SDS011;11619;50.140;8.518;2023-05-21T08:25:33;11.52;;;10.38;;
22904;SDS011;11619;50.140;8.518;2023-05-21T08:28:00;11.13;;;10.02;;
22904;SDS011;11619;50.140;8.518;2023-05-21T08:30:27;11.65;;;10.55;;
22904;SDS011;11619;50.140;8.518;2023-05-21T08:32:53;11.68;;;10.32;;
22904;SDS011;11619;50.140;8.518;2023-05-21T08:35:20;11.57;;;10.48;;
22904;SDS011;11619;50.140;8.518;2023-05-21T08:37:46;10.93;;;9.93;;
22904;SDS011;11619;50.140;8.518;2023-05-21T08:40:13;12.10;;;10.77;;
22904;SDS011;11619;50.140;8.518;2023-05-21T08:45:10;13.63;;;10.02;;
22904;SDS011;11619;50.140;8.518;2023-05-21T08:47:42;11.43;;;10.30;;
22904;SDS011;11619;50.140;8.518;2023-05-21T08:50:10;11.05;;;10.02;;
22904;SDS011;11619;50.140;8.518;2023-05-21T08:52:38;11.48;;;10.48;;
22904;SDS011;11619;50.140;8.518;2023-05-21T08:55:05;11.82;;;10.63;;
22904;SDS011;11619;50.140;8.518;2023-05-21T08:57:33;10.77;;;9.88;;
22904;SDS011;11619;50.140;8.518;2023-05-21T09:00:00;11.77;;;9.68;;
22904;SDS011;11619;50.140;8.518;2023-05-21T09:02:28;11.57;;;10.50;;
22904;SDS011;11619;50.140;8.518;2023-05-21T09:04:55;11.52;;;10.27;;
22904;SDS011;11619;50.140;8.518;2023-05-21T09:07:25;14.27;;;10.60;;
22904;SDS011;11619;50.140;8.518;2023-05-21T09:09:54;11.32;;;10.30;;
22904;SDS011;11619;50.140;8.518;2023-05-21T09:12:23;11.38;;;10.27;;
22904;SDS011;11619;50.140;8.518;2023-05-21T09:14:50;11.77;;;10.60;;
22904;SDS011;11619;50.140;8.518;2023-05-21T09:17:17;11.23;;;10.32;;
22904;SDS011;11619;50.140;8.518;2023-05-21T09:22:39;10.80;;;9.80;;
22904;SDS011;11619;50.140;8.518;2023-05-21T09:25:10;13.02;;;10.43;;
22904;SDS011;11619;50.140;8.518;2023-05-21T09:27:37;12.70;;;9.38;;
22904;SDS011;11619;50.140;8.518;2023-05-21T09:30:08;11.45;;;10.13;;
22904;SDS011;11619;50.140;8.518;2023-05-21T09:32:36;11.15;;;9.95;;
22904;SDS011;11619;50.140;8.518;2023-05-21T09:35:06;10.68;;;9.63;;
22904;SDS011;11619;50.140;8.518;2023-05-21T09:37:40;11.20;;;10.10;;
22904;SDS011;11619;50.140;8.518;2023-05-21T09:42:41;10.32;;;9.32;;
22904;SDS011;11619;50.140;8.518;2023-05-21T09:45:12;11.65;;;10.55;;
22904;SDS011;11619;50.140;8.518;2023-05-21T09:47:46;11.85;;;10.00;;
22904;SDS011;11619;50.140;8.518;2023-05-21T09:50:17;11.77;;;9.93;;
22904;SDS011;11619;50.140;8.518;2023-05-21T09:52:46;10.90;;;9.77;;
22904;SDS011;11619;50.140;8.518;2023-05-21T09:55:13;12.65;;;9.38;;
22904;SDS011;11619;50.140;8.518;2023-05-21T09:57:43;10.10;;;9.20;;
22904;SDS011;11619;50.140;8.518;2023-05-21T10:00:22;10.05;;;9.15;;
22904;SDS011;11619;50.140;8.518;2023-05-21T10:02:54;10.52;;;9.43;;
22904;SDS011;11619;50.140;8.518;2023-05-21T10:05:29;10.77;;;9.70;;
22904;SDS011;11619;50.140;8.518;2023-05-21T10:08:00;10.40;;;9.45;;
22904;SDS011;11619;50.140;8.518;2023-05-21T10:10:28;13.38;;;9.48;;
22904;SDS011;11619;50.140;8.518;2023-05-21T10:13:05;10.75;;;9.73;;
22904;SDS011;11619;50.140;8.518;2023-05-21T10:15:34;10.63;;;9.63;;
22904;SDS011;11619;50.140;8.518;2023-05-21T10:18:03;11.50;;;9.95;;
22904;SDS011;11619;50.140;8.518;2023-05-21T10:20:31;9.40;;;8.60;;
22904;SDS011;11619;50.140;8.518;2023-05-21T10:22:58;11.23;;;10.07;;
22904;SDS011;11619;50.140;8.518;2023-05-21T10:25:25;10.05;;;9.07;;
22904;SDS011;11619;50.140;8.518;2023-05-21T10:27:52;9.93;;;9.13;;
22904;SDS011;11619;50.140;8.518;2023-05-21T10:30:20;10.63;;;9.60;;
22904;SDS011;11619;50.140;8.518;2023-05-21T10:32:48;10.05;;;9.23;;
22904;SDS011;11619;50.140;8.518;2023-05-21T10:35:15;10.40;;;9.50;;
22904;SDS011;11619;50.140;8.518;2023-05-21T10:37:42;10.07;;;9.18;;
22904;SDS011;11619;50.140;8.518;2023-05-21T10:40:10;10.15;;;9.15;;
22904;SDS011;11619;50.140;8.518;2023-05-21T10:45:28;10.35;;;9.43;;
22904;SDS011;11619;50.140;8.518;2023-05-21T10:48:08;10.65;;;9.65;;
22904;SDS011;11619;50.140;8.518;2023-05-21T10:50:55;10.82;;;9.63;;
22904;SDS011;11619;50.140;8.518;2023-05-21T10:59:14;11.27;;;10.15;;
22904;SDS011;11619;50.140;8.518;2023-05-21T11:01:50;10.88;;;9.68;;
22904;SDS011;11619;50.140;8.518;2023-05-21T11:04:24;10.68;;;9.60;;
22904;SDS011;11619;50.140;8.518;2023-05-21T11:06:51;10.05;;;9.15;;
22904;SDS011;11619;50.140;8.518;2023-05-21T11:09:18;9.63;;;8.77;;
22904;SDS011;11619;50.140;8.518;2023-05-21T11:11:48;9.73;;;8.73;;
22904;SDS011;11619;50.140;8.518;2023-05-21T11:19:33;10.80;;;9.27;;
22904;SDS011;11619;50.140;8.518;2023-05-21T11:22:08;10.00;;;8.80;;
22904;SDS011;11619;50.140;8.518;2023-05-21T11:24:36;9.32;;;8.55;;
22904;SDS011;11619;50.140;8.518;2023-05-21T11:27:04;10.25;;;9.18;;
22904;SDS011;11619;50.140;8.518;2023-05-21T11:29:42;9.50;;;8.63;;
22904;SDS011;11619;50.140;8.518;2023-05-21T11:32:10;10.20;;;9.23;;
22904;SDS011;11619;50.140;8.518;2023-05-21T11:34:38;10.43;;;9.52;;
22904;SDS011;11619;50.140;8.518;2023-05-21T11:39:41;9.95;;;8.85;;
22904;SDS011;11619;50.140;8.518;2023-05-21T11:42:08;9.10;;;8.32;;
22904;SDS011;11619;50.140;8.518;2023-05-21T11:44:44;9.05;;;8.35;;
22904;SDS011;11619;50.140;8.518;2023-05-21T11:47:15;9.85;;;8.95;;
22904;SDS011;11619;50.140;8.518;2023-05-21T11:49:43;9.95;;;8.93;;
22904;SDS011;11619;50.140;8.518;2023-05-21T11:52:12;11.25;;;9.18;;
22904;SDS011;11619;50.140;8.518;2023-05-21T11:54:43;9.98;;;9.07;;
22904;SDS011;11619;50.140;8.518;2023-05-21T11:57:13;9.48;;;8.68;;
22904;SDS011;11619;50.140;8.518;2023-05-21T11:59:46;8.98;;;8.13;;
22904;SDS011;11619;50.140;8.518;2023-05-21T12:02:14;8.27;;;7.45;;
22904;SDS011;11619;50.140;8.518;2023-05-21T12:04:42;8.68;;;7.88;;
22904;SDS011;11619;50.140;8.518;2023-05-21T12:07:09;15.07;;;8.38;;
22904;SDS011;11619;50.140;8.518;2023-05-21T12:09:39;7.90;;;7.10;;
22904;SDS011;11619;50.140;8.518;2023-05-21T12:12:11;7.95;;;7.35;;
22904;SDS011;11619;50.140;8.518;2023-05-21T12:14:42;7.72;;;7.13;;
22904;SDS011;11619;50.140;8.518;2023-05-21T12:17:16;7.30;;;6.70;;
22904;SDS011;11619;50.140;8.518;2023-05-21T12:19:44;9.63;;;7.45;;
22904;SDS011;11619;50.140;8.518;2023-05-21T12:22:11;8.45;;;7.65;;
22904;SDS011;11619;50.140;8.518;2023-05-21T12:24:38;10.02;;;7.88;;
22904;SDS011;11619;50.140;8.518;2023-05-21T12:27:05;8.40;;;7.70;;
22904;SDS011;11619;50.140;8.518;2023-05-21T12:29:36;8.60;;;7.82;;
22904;SDS011;11619;50.140;8.518;2023-05-21T12:32:04;8.25;;;7.53;;
22904;SDS011;11619;50.140;8.518;2023-05-21T12:34:38;8.13;;;7.32;;
22904;SDS011;11619;50.140;8.518;2023-05-21T12:37:15;8.55;;;7.75;;
22904;SDS011;11619;50.140;8.518;2023-05-21T12:39:43;7.72;;;6.97;;
22904;SDS011;11619;50.140;8.518;2023-05-21T12:42:10;8.70;;;7.90;;
22904;SDS011;11619;50.140;8.518;2023-05-21T12:44:46;8.63;;;7.07;;
22904;SDS011;11619;50.140;8.518;2023-05-21T12:47:12;8.25;;;7.57;;
22904;SDS011;11619;50.140;8.518;2023-05-21T12:49:40;9.13;;;8.00;;
22904;SDS011;11619;50.140;8.518;2023-05-21T12:52:10;9.60;;;8.23;;
22904;SDS011;11619;50.140;8.518;2023-05-21T12:54:38;8.82;;;8.02;;
22904;SDS011;11619;50.140;8.518;2023-05-21T12:57:09;9.43;;;7.32;;
22904;SDS011;11619;50.140;8.518;2023-05-21T13:02:28;7.82;;;6.53;;
22904;SDS011;11619;50.140;8.518;2023-05-21T13:05:03;10.07;;;7.65;;
22904;SDS011;11619;50.140;8.518;2023-05-21T13:09:58;8.32;;;7.55;;
22904;SDS011;11619;50.140;8.518;2023-05-21T13:12:26;8.20;;;7.60;;
22904;SDS011;11619;50.140;8.518;2023-05-21T13:14:55;8.52;;;7.63;;
22904;SDS011;11619;50.140;8.518;2023-05-21T13:17:23;8.75;;;7.78;;
22904;SDS011;11619;50.140;8.518;2023-05-21T13:20:10;7.80;;;7.20;;
22904;SDS011;11619;50.140;8.518;2023-05-21T13:22:43;8.70;;;7.93;;
22904;SDS011;11619;50.140;8.518;2023-05-21T13:25:18;9.35;;;8.40;;
22904;SDS011;11619;50.140;8.518;2023-05-21T13:27:47;8.20;;;7.50;;
22904;SDS011;11619;50.140;8.518;2023-05-21T13:30:14;9.13;;;8.05;;
22904;SDS011;11619;50.140;8.518;2023-05-21T13:32:41;9.00;;;8.07;;
22904;SDS011;11619;50.140;8.518;2023-05-21T13:35:08;8.45;;;7.65;;
22904;SDS011;11619;50.140;8.518;2023-05-21T13:37:35;8.32;;;7.53;;
22904;SDS011;11619;50.140;8.518;2023-05-21T13:40:02;8.50;;;7.80;;
22904;SDS011;11619;50.140;8.518;2023-05-21T13:42:33;9.77;;;7.47;;
22904;SDS011;11619;50.140;8.518;2023-05-21T13:44:59;8.35;;;7.65;;
22904;SDS011;11619;50.140;8.518;2023-05-21T13:47:26;8.68;;;7.80;;
22904;SDS011;11619;50.140;8.518;2023-05-21T13:49:52;7.97;;;7.22;;
22904;SDS011;11619;50.140;8.518;2023-05-21T13:52:19;7.75;;;6.95;;
22904;SDS011;11619;50.140;8.518;2023-05-21T13:54:46;7.93;;;7.22;;
22904;SDS011;11619;50.140;8.518;2023-05-21T13:57:13;8.27;;;7.22;;
22904;SDS011;11619;50.140;8.518;2023-05-21T13:59:40;8.30;;;7.50;;
22904;SDS011;11619;50.140;8.518;2023-05-21T14:02:09;8.68;;;7.10;;
22904;SDS011;11619;50.140;8.518;2023-05-21T14:04:36;8.20;;;7.50;;
22904;SDS011;11619;50.140;8.518;2023-05-21T14:07:04;6.90;;;6.30;;
22904;SDS011;11619;50.140;8.518;2023-05-21T14:09:31;7.63;;;7.03;;
22904;SDS011;11619;50.140;8.518;2023-05-21T14:11:58;9.32;;;7.22;;
22904;SDS011;11619;50.140;8.518;2023-05-21T14:14:24;7.85;;;7.18;;
22904;SDS011;11619;50.140;8.518;2023-05-21T14:16:51;7.75;;;7.03;;
22904;SDS011;11619;50.140;8.518;2023-05-21T14:19:17;8.18;;;7.47;;
22904;SDS011;11619;50.140;8.518;2023-05-21T14:21:44;7.97;;;7.20;;
22904;SDS011;11619;50.140;8.518;2023-05-21T14:24:11;8.43;;;7.53;;
22904;SDS011;11619;50.140;8.518;2023-05-21T14:26:39;7.93;;;7.32;;
22904;SDS011;11619;50.140;8.518;2023-05-21T14:29:06;8.05;;;7.35;;
22904;SDS011;11619;50.140;8.518;2023-05-21T14:31:32;8.60;;;7.72;;
22904;SDS011;11619;50.140;8.518;2023-05-21T14:33:59;8.32;;;7.57;;
22904;SDS011;11619;50.140;8.518;2023-05-21T14:36:25;8.30;;;7.53;;
22904;SDS011;11619;50.140;8.518;2023-05-21T14:38:52;7.63;;;6.93;;
22904;SDS011;11619;50.140;8.518;2023-05-21T14:41:18;8.20;;;7.40;;
22904;SDS011;11619;50.140;8.518;2023-05-21T14:43:45;8.38;;;7.68;;
22904;SDS011;11619;50.140;8.518;2023-05-21T14:46:11;7.78;;;7.15;;
22904;SDS011;11619;50.140;8.518;2023-05-21T14:48:38;9.35;;;6.95;;
22904;SDS011;11619;50.140;8.518;2023-05-21T14:51:04;7.97;;;7.28;;
22904;SDS011;11619;50.140;8.518;2023-05-21T14:53:31;7.78;;;7.07;;
22904;SDS011;11619;50.140;8.518;2023-05-21T14:55:57;7.85;;;7.15;;
22904;SDS011;11619;50.140;8.518;2023-05-21T14:58:24;8.05;;;7.38;;
22904;SDS011;11619;50.140;8.518;2023-05-21T15:00:50;7.38;;;6.75;;
22904;SDS011;11619;50.140;8.518;2023-05-21T15:03:16;8.38;;;7.68;;
22904;SDS011;11619;50.140;8.518;2023-05-21T15:05:43;7.88;;;6.97;;